Time;durP1;ratioP1;P1;durP2;ratioP2;P2;SDS_P1;SDS_P2;PMS_P1;PMS_P2;Temp;Humidity;BMP_temperature;BMP_pressure;BME280_temperature;BME280_humidity;BME280_pressure;Samples;Min_cycle;Max_cycle;Signal;HPM_P1;HPM_P2
2021/12/27 00:00:40;;;;;;;9.87;3.23;;;;;;;-8.34;53.23;98329.91;5048164;28;20072;-76
2021/12/27 00:03:08;;;;;;;9.95;3.17;;;;;;;-8.27;53.49;98336.94;5049309;28;20044;-75
2021/12/27 00:05:34;;;;;;;11.80;3.43;;;;;;;-8.34;52.97;98346.66;5049384;28;20053;-74
2021/12/27 00:08:00;;;;;;;10.53;3.10;;;;;;;-8.48;52.88;98340.38;5037606;28;20045;-74
2021/12/27 00:10:28;;;;;;;8.00;2.67;;;;;;;-8.45;53.51;98347.94;5031754;28;20417;-76
2021/12/27 00:12:54;;;;;;;8.18;3.08;;;;;;;-8.48;53.18;98337.72;5023062;28;20285;-77
2021/12/27 00:15:20;;;;;;;10.03;3.10;;;;;;;-8.45;53.06;98350.59;5047002;28;20143;-76
2021/12/27 00:17:47;;;;;;;11.40;3.43;;;;;;;-8.55;53.40;98350.13;5048379;28;20052;-76
2021/12/27 00:20:17;;;;;;;11.15;3.03;;;;;;;-8.57;53.49;98357.47;5032780;28;20057;-77
2021/12/27 00:22:45;;;;;;;9.93;3.60;;;;;;;-8.58;53.58;98367.22;5013361;28;20406;-77
2021/12/27 00:25:12;;;;;;;10.70;3.10;;;;;;;-8.58;53.45;98361.94;5033268;28;20057;-77
2021/12/27 00:27:38;;;;;;;9.97;3.07;;;;;;;-8.60;53.09;98360.47;5048763;28;20045;-77
2021/12/27 00:30:07;;;;;;;11.60;3.33;;;;;;;-8.72;53.28;98349.53;5027556;28;20046;-78
2021/12/27 00:32:33;;;;;;;9.30;3.20;;;;;;;-8.74;53.20;98356.84;5035448;28;20053;-77
2021/12/27 00:34:59;;;;;;;8.45;3.22;;;;;;;-8.66;53.46;98356.75;5039943;28;20055;-79
2021/12/27 00:37:27;;;;;;;10.13;3.03;;;;;;;-8.65;53.30;98353.09;5048498;28;20084;-78
2021/12/27 00:39:53;;;;;;;10.43;3.42;;;;;;;-8.73;53.19;98363.78;5038087;28;20048;-78
2021/12/27 00:42:19;;;;;;;9.57;3.07;;;;;;;-8.80;53.52;98363.69;5047737;28;20044;-79
2021/12/27 00:44:45;;;;;;;12.60;3.40;;;;;;;-8.81;53.34;98370.00;5041160;28;20095;-77
2021/12/27 00:47:11;;;;;;;9.90;3.33;;;;;;;-8.86;53.55;98375.03;5045910;28;20044;-78
2021/12/27 00:49:36;;;;;;;14.13;3.73;;;;;;;-8.84;53.62;98379.13;5044004;28;20065;-77
2021/12/27 00:52:03;;;;;;;8.83;3.13;;;;;;;-8.83;53.50;98383.44;5048674;28;20064;-77
2021/12/27 00:54:30;;;;;;;11.47;3.73;;;;;;;-8.87;53.47;98384.81;5035755;28;20095;-77
2021/12/27 00:56:56;;;;;;;10.63;3.38;;;;;;;-8.83;53.80;98387.91;5034705;28;20513;-75
2021/12/27 00:59:23;;;;;;;10.37;3.53;;;;;;;-8.86;53.60;98394.41;5040482;28;20083;-75
2021/12/27 01:01:49;;;;;;;11.00;3.47;;;;;;;-8.82;53.67;98397.50;5042490;28;20498;-76
2021/12/27 01:04:15;;;;;;;8.40;2.90;;;;;;;-8.77;53.58;98410.22;5037813;28;20425;-75
2021/12/27 01:06:41;;;;;;;10.03;3.37;;;;;;;-8.71;53.51;98405.00;5036889;28;20061;-75
2021/12/27 01:09:07;;;;;;;10.87;3.07;;;;;;;-8.80;53.55;98414.03;5045417;28;20041;-70
2021/12/27 01:16:30;;;;;;;10.73;3.27;;;;;;;-8.78;54.05;98411.22;5054433;28;20053;-71
2021/12/27 01:18:57;;;;;;;9.63;2.87;;;;;;;-8.83;53.94;98396.66;5045066;28;20335;-71
2021/12/27 01:21:24;;;;;;;11.97;3.30;;;;;;;-8.73;53.73;98400.88;5038648;28;20469;-70
2021/12/27 01:23:53;;;;;;;7.63;2.78;;;;;;;-8.71;53.78;98402.34;5033317;28;20048;-70
2021/12/27 01:26:19;;;;;;;10.47;2.70;;;;;;;-8.69;53.77;98420.72;5051916;28;20436;-71
2021/12/27 01:28:47;;;;;;;10.37;3.27;;;;;;;-8.69;53.57;98426.00;5025147;28;20049;-70
2021/12/27 01:31:13;;;;;;;7.90;2.87;;;;;;;-8.71;53.67;98430.66;5042239;28;20041;-70
2021/12/27 01:33:40;;;;;;;9.60;3.27;;;;;;;-8.70;54.34;98435.81;5045356;28;20156;-71
2021/12/27 01:36:06;;;;;;;13.63;4.03;;;;;;;-8.75;53.94;98429.41;5052568;28;20510;-70
2021/12/27 01:38:37;;;;;;;11.27;2.78;;;;;;;-8.74;54.11;98426.56;5049293;28;20042;-69
2021/12/27 01:41:04;;;;;;;10.63;3.00;;;;;;;-8.76;54.70;98427.75;5041026;28;20136;-70
2021/12/27 01:43:32;;;;;;;10.85;2.88;;;;;;;-8.78;54.09;98435.06;5032583;28;20045;-69
2021/12/27 01:46:02;;;;;;;11.93;3.20;;;;;;;-8.87;54.07;98439.66;5034047;28;20049;-70
2021/12/27 01:48:32;;;;;;;11.13;3.60;;;;;;;-8.89;54.39;98439.81;5038748;28;20052;-70
2021/12/27 01:51:00;;;;;;;10.47;2.77;;;;;;;-8.84;54.77;98423.38;5044114;28;20044;-70
2021/12/27 01:53:32;;;;;;;9.50;2.93;;;;;;;-8.72;54.40;98431.69;5052906;28;20041;-69
2021/12/27 01:55:59;;;;;;;10.20;3.40;;;;;;;-8.67;54.29;98442.53;5057303;28;20398;-70
2021/12/27 01:58:26;;;;;;;8.55;2.70;;;;;;;-8.88;54.27;98438.00;5042584;28;20053;-69
2021/12/27 02:00:54;;;;;;;9.32;2.88;;;;;;;-8.76;54.13;98447.13;5044612;28;20508;-69
2021/12/27 02:03:26;;;;;;;10.20;3.03;;;;;;;-8.85;54.18;98435.78;5039215;28;20099;-69
2021/12/27 02:05:52;;;;;;;11.50;2.93;;;;;;;-8.85;54.39;98454.34;5050979;28;20517;-69
2021/12/27 02:08:18;;;;;;;9.70;3.33;;;;;;;-8.80;54.59;98443.19;5021089;28;20080;-70
2021/12/27 02:10:45;;;;;;;8.57;2.97;;;;;;;-8.80;54.47;98464.41;5022852;28;20521;-68
2021/12/27 02:13:12;;;;;;;12.47;3.47;;;;;;;-8.77;54.83;98461.38;5034916;28;20129;-69
2021/12/27 02:15:38;;;;;;;8.70;2.90;;;;;;;-8.84;54.56;98461.28;5039808;28;20056;-69
2021/12/27 02:18:05;;;;;;;8.30;3.00;;;;;;;-8.78;54.60;98461.56;5051695;28;20045;-69
2021/12/27 02:20:34;;;;;;;10.87;3.07;;;;;;;-8.75;54.29;98467.31;5044510;28;20048;-69
2021/12/27 02:23:03;;;;;;;10.50;3.37;;;;;;;-8.76;54.64;98463.00;5025246;28;20410;-70
2021/12/27 02:25:30;;;;;;;10.57;3.40;;;;;;;-8.80;54.08;98471.53;5047525;28;20106;-70
2021/12/27 02:28:01;;;;;;;10.75;3.58;;;;;;;-8.91;54.32;98470.97;5040328;28;20136;-69
2021/12/27 02:30:27;;;;;;;10.30;3.17;;;;;;;-8.83;54.40;98483.31;5032977;28;20073;-70
2021/12/27 02:32:55;;;;;;;9.97;3.37;;;;;;;-8.87;54.40;98477.53;5035803;28;20045;-70
2021/12/27 02:35:27;;;;;;;10.00;3.13;;;;;;;-8.83;54.88;98462.13;5035796;28;20541;-70
2021/12/27 02:37:56;;;;;;;10.20;3.23;;;;;;;-8.94;55.06;98481.09;5032255;28;20053;-68
2021/12/27 02:40:24;;;;;;;9.20;3.47;;;;;;;-8.81;54.50;98491.91;5047255;28;20056;-70
2021/12/27 02:42:56;;;;;;;10.47;3.30;;;;;;;-8.80;54.48;98500.69;5036384;28;20056;-69
2021/12/27 02:45:23;;;;;;;11.00;3.37;;;;;;;-8.73;54.34;98510.38;5049948;28;20052;-70
2021/12/27 02:47:49;;;;;;;9.20;3.20;;;;;;;-8.78;54.28;98502.13;5044891;28;20132;-69
2021/12/27 02:50:15;;;;;;;9.60;3.30;;;;;;;-8.75;54.52;98504.41;5040914;28;20060;-70
2021/12/27 02:52:41;;;;;;;9.00;3.23;;;;;;;-8.74;54.35;98514.03;5031481;28;20045;-70
2021/12/27 02:55:10;;;;;;;13.20;4.00;;;;;;;-8.85;54.61;98517.94;5032085;28;20049;-70
2021/12/27 02:57:36;;;;;;;10.17;3.50;;;;;;;-8.85;54.56;98522.44;5034773;28;20065;-71
2021/12/27 03:00:03;;;;;;;10.27;3.50;;;;;;;-8.91;54.62;98523.97;5036426;28;20049;-70
2021/12/27 03:02:29;;;;;;;12.23;4.00;;;;;;;-8.86;54.87;98521.59;5034723;28;20041;-69
2021/12/27 03:04:55;;;;;;;9.30;3.53;;;;;;;-8.85;54.88;98533.03;5031744;28;20068;-70
2021/12/27 03:07:21;;;;;;;9.97;3.67;;;;;;;-8.79;54.70;98534.94;5042500;28;20049;-69
2021/12/27 03:09:47;;;;;;;10.77;3.87;;;;;;;-8.84;55.15;98542.63;5048198;28;20076;-69
2021/12/27 03:12:15;;;;;;;11.00;3.63;;;;;;;-8.84;55.07;98532.81;5034327;28;20041;-70
2021/12/27 03:14:40;;;;;;;12.70;4.10;;;;;;;-8.90;54.95;98551.28;5037118;28;20067;-69
2021/12/27 03:17:06;;;;;;;13.60;4.50;;;;;;;-8.73;54.89;98542.19;5062270;28;20056;-70
2021/12/27 03:19:32;;;;;;;12.20;4.27;;;;;;;-8.71;54.82;98550.78;5046079;28;20444;-71
2021/12/27 03:21:58;;;;;;;13.60;4.07;;;;;;;-8.77;54.72;98550.69;5044940;28;20049;-71
2021/12/27 03:24:24;;;;;;;11.20;3.97;;;;;;;-8.79;54.83;98534.94;5038460;28;20034;-71
2021/12/27 03:26:50;;;;;;;11.13;4.03;;;;;;;-8.70;55.04;98543.63;5044636;28;20055;-70
2021/12/27 03:29:18;;;;;;;12.83;4.33;;;;;;;-8.74;54.89;98563.56;5041635;28;20460;-71
2021/12/27 03:31:43;;;;;;;11.82;4.00;;;;;;;-8.68;55.04;98549.56;5041841;28;20047;-70
2021/12/27 03:34:10;;;;;;;12.10;4.47;;;;;;;-8.69;54.76;98553.22;5035810;28;20492;-69
2021/12/27 03:36:40;;;;;;;10.20;3.83;;;;;;;-8.69;54.49;98561.19;5016263;28;20052;-69
2021/12/27 03:39:08;;;;;;;18.67;4.10;;;;;;;-8.65;54.75;98570.44;5047007;28;20572;-70
2021/12/27 03:41:34;;;;;;;15.53;4.60;;;;;;;-8.65;54.86;98574.91;5051509;28;20041;-69
2021/12/27 03:44:00;;;;;;;10.97;4.00;;;;;;;-8.65;54.98;98561.66;5031317;28;20065;-70
2021/12/27 03:46:28;;;;;;;12.37;4.07;;;;;;;-8.61;55.01;98582.31;5032404;28;20045;-68
2021/12/27 03:48:54;;;;;;;13.25;4.00;;;;;;;-8.56;54.79;98574.66;5048212;28;20518;-69
2021/12/27 03:51:20;;;;;;;12.80;4.23;;;;;;;-8.60;55.31;98586.63;5031918;28;20395;-70
2021/12/27 03:53:46;;;;;;;13.37;4.60;;;;;;;-8.74;55.56;98587.41;5034346;28;20052;-70
2021/12/27 03:56:12;;;;;;;10.47;3.33;;;;;;;-8.77;55.52;98577.97;5029208;28;20071;-70
2021/12/27 03:58:49;;;;;;;11.97;3.77;;;;;;;-8.67;55.31;98590.16;5031297;28;20052;-71
2021/12/27 04:01:16;;;;;;;13.83;4.53;;;;;;;-8.64;55.40;98595.09;5040717;28;20042;-70
2021/12/27 04:03:46;;;;;;;15.30;4.00;;;;;;;-8.69;55.30;98591.19;5030007;28;20556;-69
2021/12/27 04:06:14;;;;;;;11.80;4.03;;;;;;;-8.64;55.45;98595.94;5022342;28;20057;-70
2021/12/27 04:08:40;;;;;;;12.13;3.83;;;;;;;-8.61;55.48;98595.59;5043497;28;20045;-70
2021/12/27 04:11:06;;;;;;;10.33;4.13;;;;;;;-8.58;55.37;98595.22;5038808;28;20088;-70
2021/12/27 04:13:33;;;;;;;11.27;4.20;;;;;;;-8.47;55.04;98603.72;5045561;28;20045;-70
2021/12/27 04:16:00;;;;;;;13.88;4.97;;;;;;;-8.59;55.03;98603.34;5045924;28;20041;-71
2021/12/27 04:18:28;;;;;;;15.53;4.80;;;;;;;-8.59;55.15;98611.28;5037104;28;20148;-70
2021/12/27 04:20:56;;;;;;;12.07;4.13;;;;;;;-8.62;55.42;98623.09;5049063;28;20049;-70
2021/12/27 04:23:22;;;;;;;;;;;;;;;-8.53;55.09;98615.06;5039177;28;20140;-69
2021/12/27 04:25:48;;;;;;;30.60;3.83;;;;;;;-8.41;54.85;98626.84;5046764;28;20019;-70
2021/12/27 04:28:15;;;;;;;9.83;3.80;;;;;;;-8.35;54.54;98635.91;5046769;28;20049;-69
2021/12/27 04:30:41;;;;;;;13.60;4.18;;;;;;;-8.42;54.59;98636.66;5045825;28;20090;-71
2021/12/27 04:33:14;;;;;;;12.67;4.63;;;;;;;-8.53;54.97;98626.50;5033827;28;20050;-71
2021/12/27 04:35:40;;;;;;;12.43;4.23;;;;;;;-8.58;55.11;98627.03;5030628;28;20055;-69
2021/12/27 04:38:08;;;;;;;13.53;4.27;;;;;;;-8.53;55.25;98626.50;5042865;28;20052;-71
2021/12/27 04:40:40;;;;;;;11.47;3.73;;;;;;;-8.48;54.99;98632.03;5037603;28;20045;-70
2021/12/27 04:43:09;;;;;;;13.80;4.43;;;;;;;-8.48;55.05;98634.69;5036304;28;20058;-68
2021/12/27 04:45:36;;;;;;;10.00;3.97;;;;;;;-8.36;54.61;98636.91;5030085;28;20318;-70
2021/12/27 04:48:02;;;;;;;13.33;4.50;;;;;;;-8.41;54.72;98645.41;5029519;28;20045;-70
2021/12/27 04:50:28;;;;;;;13.77;4.50;;;;;;;-8.42;54.48;98654.38;5033438;28;20052;-69
2021/12/27 04:52:54;;;;;;;12.73;4.87;;;;;;;-8.56;54.79;98651.53;5042368;28;20424;-69
2021/12/27 04:55:23;;;;;;;18.23;4.57;;;;;;;-8.55;55.12;98647.88;5040593;28;20144;-70
2021/12/27 04:57:49;;;;;;;14.77;5.10;;;;;;;-8.52;55.11;98657.31;5030693;28;20050;-71
2021/12/27 05:00:16;;;;;;;14.87;5.27;;;;;;;-8.50;54.75;98673.84;5030356;28;20049;-69
2021/12/27 05:02:42;;;;;;;15.33;5.43;;;;;;;-8.55;54.95;98655.81;5034713;28;20049;-69
2021/12/27 05:05:08;;;;;;;15.83;5.73;;;;;;;-8.41;54.86;98671.94;5046154;28;20394;-69
2021/12/27 05:07:34;;;;;;;15.40;6.03;;;;;;;-8.45;54.77;98683.91;5045235;28;20041;-70
2021/12/27 05:10:00;;;;;;;13.87;5.60;;;;;;;-8.50;54.73;98663.25;5037609;28;20071;-70
2021/12/27 05:12:30;;;;;;;15.53;5.40;;;;;;;-8.45;54.71;98684.72;5041903;28;20080;-70
2021/12/27 05:14:57;;;;;;;19.47;5.23;;;;;;;-8.37;54.49;98677.69;5065728;28;20134;-71
2021/12/27 05:17:23;;;;;;;13.50;4.77;;;;;;;-8.42;54.55;98684.38;5022477;28;20045;-70
2021/12/27 05:19:52;;;;;;;12.80;4.73;;;;;;;-8.31;54.81;98687.59;5051017;28;20579;-70
2021/12/27 05:22:21;;;;;;;11.87;4.47;;;;;;;-8.34;54.15;98699.41;5051000;28;20358;-70
2021/12/27 05:24:47;;;;;;;11.10;4.30;;;;;;;-8.29;54.65;98685.56;5053522;28;20049;-70
2021/12/27 05:27:13;;;;;;;16.07;5.10;;;;;;;-8.30;54.37;98694.53;5047072;28;20131;-70
2021/12/27 05:29:40;;;;;;;13.63;4.57;;;;;;;-8.42;54.24;98686.19;5051075;28;20132;-71
2021/12/27 05:32:07;;;;;;;15.70;5.28;;;;;;;-8.36;54.31;98704.03;5056573;28;20478;-70
2021/12/27 05:34:33;;;;;;;13.70;5.13;;;;;;;-8.45;54.63;98697.97;5052732;28;20055;-70
2021/12/27 05:36:59;;;;;;;18.17;5.60;;;;;;;-8.44;54.51;98704.09;5042293;28;20069;-70
2021/12/27 05:39:25;;;;;;;13.27;5.17;;;;;;;-8.51;54.63;98700.53;5047228;28;20067;-70
2021/12/27 05:41:51;;;;;;;13.90;5.00;;;;;;;-8.45;54.42;98716.53;5028826;28;20784;-69
2021/12/27 05:44:18;;;;;;;12.37;4.53;;;;;;;-8.47;54.36;98718.53;5052698;28;20574;-77
2021/12/27 05:46:45;;;;;;;18.10;6.03;;;;;;;-8.52;54.43;98714.78;5048328;28;20136;-77
2021/12/27 05:49:11;;;;;;;;;;;;;;;-8.45;54.59;98719.19;5034884;28;20433;-77
2021/12/27 05:51:37;;;;;;;15.40;5.13;;;;;;;-8.45;54.08;98719.19;5039564;28;19928;-78
2021/12/27 05:54:03;;;;;;;11.60;4.87;;;;;;;-8.53;54.35;98724.59;5049320;28;20037;-78
2021/12/27 05:56:29;;;;;;;15.57;5.83;;;;;;;-8.52;54.34;98728.06;5051557;28;20160;-77
2021/12/27 05:58:56;;;;;;;18.43;5.80;;;;;;;-8.57;54.40;98725.97;5046596;28;20053;-78
2021/12/27 06:01:25;;;;;;;16.73;6.33;;;;;;;-8.54;54.18;98746.81;5050815;28;20133;-77
2021/12/27 06:03:55;;;;;;;16.70;5.90;;;;;;;-8.59;54.34;98747.34;5038445;28;20421;-77
2021/12/27 06:06:21;;;;;;;19.33;6.10;;;;;;;-8.63;54.35;98753.16;5043577;28;20403;-76
2021/12/27 06:08:50;;;;;;;17.30;5.95;;;;;;;-8.58;54.73;98750.81;5045305;28;20408;-68
2021/12/27 06:11:16;;;;;;;14.93;5.27;;;;;;;-8.71;54.65;98762.84;5015916;28;20050;-76
2021/12/27 06:13:43;;;;;;;15.77;6.00;;;;;;;-8.63;54.84;98753.16;5045039;28;20097;-77
2021/12/27 06:16:09;;;;;;;16.60;6.07;;;;;;;-8.72;55.04;98742.63;5057113;28;20040;-76
2021/12/27 06:18:36;;;;;;;14.07;5.90;;;;;;;-8.72;54.70;98771.78;5062046;28;20098;-76
2021/12/27 06:21:04;;;;;;;15.40;5.80;;;;;;;-8.73;55.08;98774.59;5051859;28;20056;-76
2021/12/27 06:23:30;;;;;;;12.90;5.20;;;;;;;-8.80;54.89;98763.88;5050740;28;20052;-76
2021/12/27 06:25:56;;;;;;;15.40;4.80;;;;;;;-8.78;54.98;98769.00;5051946;28;20057;-76
2021/12/27 06:28:22;;;;;;;16.57;5.23;;;;;;;-8.75;54.83;98780.06;5066583;28;20063;-78
2021/12/27 06:30:49;;;;;;;14.83;5.97;;;;;;;-8.71;54.84;98785.84;5067893;28;20098;-77
2021/12/27 06:33:15;;;;;;;15.83;5.43;;;;;;;-8.72;54.38;98784.19;5035327;28;20057;-77
2021/12/27 06:35:42;;;;;;;17.63;5.90;;;;;;;-8.69;54.46;98791.78;5046221;28;20469;-75
2021/12/27 06:38:09;;;;;;;14.52;6.03;;;;;;;-8.71;54.75;98796.44;5049490;28;20064;-72
2021/12/27 06:40:35;;;;;;;15.25;6.13;;;;;;;-8.67;54.33;98789.78;5057406;28;20036;-74
2021/12/27 06:43:01;;;;;;;17.23;5.90;;;;;;;-8.65;54.24;98789.63;5049658;28;20047;-72
2021/12/27 06:45:27;;;;;;;18.50;5.30;;;;;;;-8.61;54.08;98794.41;5034357;28;20573;-73
2021/12/27 06:47:53;;;;;;;15.07;5.20;;;;;;;-8.60;54.06;98804.00;5030644;28;20096;-76
2021/12/27 06:50:21;;;;;;;14.73;5.67;;;;;;;-8.72;54.67;98798.28;5033516;28;20053;-72
2021/12/27 06:52:47;;;;;;;15.40;6.33;;;;;;;-8.71;54.47;98799.94;5025563;28;20539;-71
2021/12/27 06:55:15;;;;;;;19.30;7.23;;;;;;;-8.67;54.24;98802.22;5051172;28;20072;-72
2021/12/27 06:57:41;;;;;;;16.95;6.97;;;;;;;-8.65;54.44;98800.22;5047552;28;20037;-70
2021/12/27 07:00:11;;;;;;;17.20;6.00;;;;;;;-8.57;54.50;98824.06;5031250;28;20041;-73
2021/12/27 07:02:37;;;;;;;18.70;6.77;;;;;;;-8.62;54.01;98819.28;5046597;28;20114;-70
2021/12/27 07:05:04;;;;;;;18.07;6.97;;;;;;;-8.64;54.30;98817.78;5042491;28;20076;-70
2021/12/27 07:07:31;;;;;;;18.02;7.25;;;;;;;-8.58;54.28;98819.75;5055639;28;20493;-70
2021/12/27 07:09:56;;;;;;;17.27;6.03;;;;;;;-8.58;53.83;98820.56;5036758;28;20057;-70
2021/12/27 07:12:24;;;;;;;20.43;6.80;;;;;;;-8.57;54.26;98822.22;5050018;28;20570;-70
2021/12/27 07:14:50;;;;;;;19.00;6.88;;;;;;;-8.64;54.40;98826.56;5047136;28;20076;-69
2021/12/27 07:17:16;;;;;;;15.43;5.70;;;;;;;-8.58;54.28;98819.75;5046114;28;20122;-71
2021/12/27 07:19:42;;;;;;;21.67;6.33;;;;;;;-8.51;54.37;98828.66;5059014;28;20113;-71
2021/12/27 07:22:08;;;;;;;17.10;6.20;;;;;;;-8.57;53.92;98816.91;5039515;28;20510;-70
2021/12/27 07:24:34;;;;;;;17.43;6.23;;;;;;;-8.49;53.82;98816.00;5043344;28;20135;-70
2021/12/27 07:27:00;;;;;;;16.53;5.93;;;;;;;-8.35;54.24;98808.31;5054414;28;20454;-70
2021/12/27 07:29:27;;;;;;;16.03;6.27;;;;;;;-8.26;53.32;98826.63;5055587;28;20044;-70
2021/12/27 07:31:53;;;;;;;18.70;7.50;;;;;;;-8.29;53.34;98815.53;5049661;28;20045;-70
2021/12/27 07:34:24;;;;;;;17.30;6.70;;;;;;;-8.39;53.74;98829.03;5049766;28;20045;-71
2021/12/27 07:36:51;;;;;;;16.63;6.27;;;;;;;-8.46;53.60;98841.34;5048726;28;20421;-70
2021/12/27 07:39:18;;;;;;;18.58;6.82;;;;;;;-8.43;53.34;98827.75;5046357;28;20099;-70
2021/12/27 07:41:44;;;;;;;22.85;7.03;;;;;;;-8.45;53.22;98830.56;5056200;28;20060;-71
2021/12/27 07:44:12;;;;;;;;;;;;;;;-8.50;53.51;98830.31;5058561;28;20103;-71
2021/12/27 07:46:41;;;;;;;14.50;5.90;;;;;;;-8.54;53.40;98842.25;5053169;28;19932;-76
2021/12/27 07:49:08;;;;;;;18.97;5.73;;;;;;;-8.45;53.84;98843.00;5045939;28;20059;-75
2021/12/27 07:51:35;;;;;;;14.45;5.20;;;;;;;-8.47;53.21;98860.91;5064645;28;20452;-75
2021/12/27 07:54:02;;;;;;;20.63;6.80;;;;;;;-8.57;53.49;98864.63;5048606;28;20045;-76
2021/12/27 07:56:28;;;;;;;16.13;6.60;;;;;;;-8.52;53.46;98857.97;5057626;28;20152;-76
2021/12/27 07:58:54;;;;;;;18.83;6.83;;;;;;;-8.51;53.50;98873.72;5039325;28;20049;-76
2021/12/27 08:01:20;;;;;;;17.50;6.57;;;;;;;-8.49;53.61;98876.19;5042482;28;20048;-76
2021/12/27 08:03:47;;;;;;;24.30;7.80;;;;;;;-8.49;53.63;98876.19;5047455;28;20055;-74
2021/12/27 08:06:16;;;;;;;21.33;6.70;;;;;;;-8.55;53.48;98875.09;5036188;28;20162;-75
2021/12/27 08:08:42;;;;;;;17.43;6.60;;;;;;;-8.46;53.51;98876.63;5040973;28;20209;-75
2021/12/27 08:11:08;;;;;;;17.57;6.40;;;;;;;-8.44;53.33;98879.94;5047240;28;20049;-73
2021/12/27 08:13:35;;;;;;;14.23;5.67;;;;;;;-8.56;52.84;98876.09;5048004;28;20091;-75
2021/12/27 08:16:01;;;;;;;20.17;6.53;;;;;;;-8.46;52.84;98892.56;5033679;28;20052;-74
2021/12/27 08:18:29;;;;;;;20.13;7.57;;;;;;;-8.34;52.82;98893.00;5036131;28;20044;-73
2021/12/27 08:20:57;;;;;;;19.97;6.50;;;;;;;-8.40;52.86;98886.56;5053585;28;20120;-74
2021/12/27 08:23:22;;;;;;;17.45;7.15;;;;;;;-8.50;52.64;98875.38;5032667;28;20323;-76
2021/12/27 08:25:48;;;;;;;22.33;6.03;;;;;;;-8.46;52.96;98889.91;5047137;28;20040;-76
2021/12/27 08:28:14;;;;;;;13.97;5.27;;;;;;;-8.53;52.62;98894.28;5052854;28;20464;-77
2021/12/27 08:30:40;;;;;;;16.07;5.23;;;;;;;-8.52;52.96;98882.69;5031847;28;20072;-75
2021/12/27 08:33:06;;;;;;;12.83;5.07;;;;;;;-8.44;52.85;98897.69;5038704;28;20072;-75
2021/12/27 08:35:36;;;;;;;21.80;5.23;;;;;;;-8.38;52.68;98891.69;5030803;28;20149;-76
2021/12/27 08:38:04;;;;;;;14.55;5.30;;;;;;;-8.39;52.46;98887.38;5033798;28;20191;-74
2021/12/27 08:40:30;;;;;;;15.35;6.05;;;;;;;-8.45;52.49;98896.84;5041191;28;20088;-75
2021/12/27 08:42:56;;;;;;;19.77;4.93;;;;;;;-8.43;52.50;98886.09;5048635;28;20053;-74
2021/12/27 08:45:22;;;;;;;12.50;5.00;;;;;;;-8.18;52.12;98883.31;5049394;28;20629;-75
2021/12/27 08:47:48;;;;;;;14.20;5.50;;;;;;;-8.13;52.06;98880.94;5041423;28;20044;-75
2021/12/27 08:50:17;;;;;;;12.00;4.90;;;;;;;-7.95;51.78;98877.16;5044016;28;20045;-75
2021/12/27 08:52:43;;;;;;;18.57;5.20;;;;;;;-7.84;51.75;98885.53;5048895;28;20057;-75
2021/12/27 08:55:12;;;;;;;12.83;4.57;;;;;;;-7.58;51.16;98886.16;5043980;28;20539;-75
2021/12/27 08:57:39;;;;;;;12.50;4.60;;;;;;;-7.26;50.99;98879.72;5054243;28;20072;-74
2021/12/27 09:00:08;;;;;;;16.05;5.28;;;;;;;-7.14;50.19;98885.41;5046694;28;20041;-75
2021/12/27 09:02:34;;;;;;;14.10;4.60;;;;;;;-7.12;50.00;98882.56;5041560;28;20056;-75
2021/12/27 09:05:01;;;;;;;13.67;4.80;;;;;;;-7.28;50.20;98873.78;5049486;28;20433;-72
2021/12/27 09:07:27;;;;;;;16.57;4.87;;;;;;;-7.09;50.61;98882.22;5050903;28;20505;-73
2021/12/27 09:09:53;;;;;;;15.43;5.50;;;;;;;-7.05;50.26;98872.84;5043972;28;20145;-72
2021/12/27 09:12:20;;;;;;;13.23;4.93;;;;;;;-6.89;50.03;98885.16;5053375;28;20049;-73
2021/12/27 09:14:46;;;;;;;13.88;5.10;;;;;;;-6.76;49.61;98889.81;5049693;28;20081;-72
2021/12/27 09:17:13;;;;;;;12.30;4.67;;;;;;;-6.74;49.53;98898.44;5036812;28;20044;-71
2021/12/27 09:19:39;;;;;;;37.27;5.80;;;;;;;-6.63;49.42;98898.97;5043381;28;20049;-69
2021/12/27 09:22:05;;;;;;;16.83;5.27;;;;;;;-6.44;49.44;98887.75;5045325;28;20103;-70
2021/12/27 09:24:32;;;;;;;12.53;5.17;;;;;;;-5.83;48.57;98896.38;5052759;28;20056;-70
2021/12/27 09:26:58;;;;;;;14.40;5.33;;;;;;;-5.34;47.16;98888.59;5053574;28;20110;-70
2021/12/27 09:29:26;;;;;;;14.70;4.70;;;;;;;-5.07;46.92;98897.59;5035544;28;20080;-69
2021/12/27 09:31:53;;;;;;;17.47;5.10;;;;;;;-4.62;46.91;98901.75;5040829;28;20038;-68
2021/12/27 09:34:19;;;;;;;13.30;5.37;;;;;;;-4.50;45.73;98888.66;5039718;28;20457;-68
2021/12/27 09:36:45;;;;;;;16.73;5.00;;;;;;;-4.14;45.55;98891.06;5031039;28;20049;-70
2021/12/27 09:39:11;;;;;;;14.93;5.20;;;;;;;-3.82;45.23;98903.03;5048089;28;20037;-70
2021/12/27 09:41:38;;;;;;;15.37;4.83;;;;;;;-3.43;44.43;98901.44;5047587;28;20049;-68
2021/12/27 09:44:05;;;;;;;16.17;5.30;;;;;;;-3.10;44.35;98897.94;5048501;28;20114;-67
2021/12/27 09:46:33;;;;;;;14.57;5.73;;;;;;;-3.44;43.66;98895.28;5044961;28;20049;-70
2021/12/27 09:49:03;;;;;;;17.20;5.17;;;;;;;-3.37;43.39;98907.81;5044414;28;20071;-70
2021/12/27 09:51:30;;;;;;;14.03;5.07;;;;;;;-4.01;44.26;98908.13;5048238;28;20505;-68
2021/12/27 09:53:56;;;;;;;12.73;4.85;;;;;;;-4.40;44.83;98915.81;5036843;28;20041;-69
2021/12/27 09:56:22;;;;;;;15.17;5.53;;;;;;;-4.68;44.86;98922.03;5043782;28;20052;-68
2021/12/27 09:58:48;;;;;;;14.20;5.70;;;;;;;-4.68;44.96;98911.34;5052201;28;20045;-68
2021/12/27 10:01:14;;;;;;;15.23;5.07;;;;;;;-4.52;45.09;98923.56;5046804;28;20079;-69
2021/12/27 10:03:50;;;;;;;13.20;5.13;;;;;;;-4.33;43.64;98916.66;5053196;28;20071;-67
2021/12/27 10:06:18;;;;;;;16.73;5.03;;;;;;;-3.95;43.86;98919.88;5053759;28;20049;-66
2021/12/27 10:08:45;;;;;;;12.82;4.63;;;;;;;-3.54;43.34;98926.09;5044452;28;20056;-68
2021/12/27 10:11:23;;;;;;;12.55;4.97;;;;;;;-3.32;42.17;98927.56;5038799;28;20053;-69
2021/12/27 10:14:00;;;;;;;14.10;5.50;;;;;;;-3.22;42.09;98907.59;5052097;28;20052;-68
2021/12/27 10:16:26;;;;;;;13.85;5.38;;;;;;;-3.03;41.58;98924.69;5040798;28;20152;-69
2021/12/27 10:18:55;;;;;;;11.93;4.83;;;;;;;-3.08;42.56;98921.78;5037893;28;20056;-69
2021/12/27 10:21:21;;;;;;;15.10;5.23;;;;;;;-2.65;41.24;98931.22;5033100;28;20037;-69
2021/12/27 10:23:47;;;;;;;17.20;5.30;;;;;;;-3.10;41.96;98921.19;5050565;28;20053;-69
2021/12/27 10:26:17;;;;;;;12.83;4.60;;;;;;;-2.55;41.31;98925.41;5048714;28;20045;-69
2021/12/27 10:28:43;;;;;;;13.17;5.03;;;;;;;-3.06;41.43;98944.63;5036239;28;20128;-68
2021/12/27 10:31:09;;;;;;;14.50;4.83;;;;;;;-3.36;41.87;98931.66;5046839;28;20083;-69
2021/12/27 10:33:36;;;;;;;13.67;5.20;;;;;;;-3.81;42.74;98936.75;5045554;28;20045;-68
2021/12/27 10:36:03;;;;;;;14.80;5.00;;;;;;;-3.80;42.93;98938.38;5050793;28;20058;-68
2021/12/27 10:38:32;;;;;;;15.07;5.13;;;;;;;-3.41;42.19;98947.50;5040080;28;20072;-67
2021/12/27 10:41:01;;;;;;;16.43;5.43;;;;;;;-3.37;41.77;98934.53;5048484;28;20057;-66
2021/12/27 10:43:38;;;;;;;15.20;5.60;;;;;;;-3.21;40.99;98944.03;5048474;28;20055;-66
2021/12/27 10:46:05;;;;;;;13.98;5.70;;;;;;;-3.31;41.49;98947.91;5035605;28;20049;-67
2021/12/27 10:48:33;;;;;;;14.82;5.90;;;;;;;-3.08;41.34;98938.66;5055933;28;20524;-66
2021/12/27 10:50:58;;;;;;;;;;;;;;;-2.45;40.13;98956.06;5052092;28;20424;-68
2021/12/27 10:53:26;;;;;;;15.10;5.53;;;;;;;-2.43;40.42;98943.28;5033307;28;19929;-67
2021/12/27 10:55:53;;;;;;;15.35;5.25;;;;;;;-2.18;40.03;98941.75;5030752;28;20080;-68
2021/12/27 10:58:23;;;;;;;13.30;5.47;;;;;;;-2.09;39.96;98951.22;5040016;28;20041;-68
2021/12/27 11:00:50;;;;;;;16.47;6.00;;;;;;;-1.97;40.14;98955.88;5041478;28;20054;-69
2021/12/27 11:03:25;;;;;;;18.65;6.35;;;;;;;-1.65;38.84;98951.38;5009241;28;20041;-70
2021/12/27 11:05:51;;;;;;;14.17;5.53;;;;;;;-1.65;39.30;98948.72;5045140;28;20065;-70
2021/12/27 11:08:17;;;;;;;16.67;6.22;;;;;;;-2.17;39.20;98952.28;5047646;28;20068;-69
2021/12/27 11:10:45;;;;;;;16.15;5.25;;;;;;;-1.54;39.27;98919.56;5052028;28;20047;-70
2021/12/27 11:13:11;;;;;;;15.57;5.75;;;;;;;-1.69;39.15;98938.63;5051957;28;20495;-70
2021/12/27 11:15:37;;;;;;;15.48;5.93;;;;;;;-1.82;40.37;98934.97;5039111;28;20057;-70
2021/12/27 11:18:05;;;;;;;15.07;5.27;;;;;;;-2.23;40.33;98942.38;5045719;28;20139;-69
2021/12/27 11:20:31;;;;;;;17.65;6.32;;;;;;;-2.78;41.00;98950.78;5046701;28;20037;-70
2021/12/27 11:22:59;;;;;;;17.90;6.20;;;;;;;-3.68;42.71;98933.25;5032558;28;20049;-70
2021/12/27 11:25:32;;;;;;;17.67;5.97;;;;;;;-4.40;43.43;98955.84;5038357;28;20516;-70
2021/12/27 11:28:00;;;;;;;23.20;6.13;;;;;;;-4.62;44.22;98961.25;5037118;28;20056;-71
2021/12/27 11:30:29;;;;;;;14.20;5.40;;;;;;;-4.86;44.34;98958.03;5027042;28;20049;-71